createdAt,value
2023-03-15T05:44:40.075Z,99653.84
2023-03-15T05:47:25.921Z,99654.95
2023-03-15T05:50:08.425Z,99645.70
2023-03-15T05:52:59.314Z,99640.27
2023-03-15T05:55:36.565Z,99637.06
2023-03-15T05:58:36.281Z,99631.96
2023-03-15T06:01:25.267Z,99620.80
2023-03-15T06:04:00.990Z,99612.55
2023-03-15T06:06:29.241Z,99605.35
2023-03-15T06:08:55.902Z,99601.96
2023-03-15T06:11:23.433Z,99603.23
2023-03-15T06:13:50.468Z,99603.45
2023-03-15T06:16:34.241Z,99596.09
2023-03-15T06:19:02.741Z,99596.86
2023-03-15T06:21:30.245Z,99593.60
2023-03-15T06:23:56.970Z,99596.75
2023-03-15T06:26:23.648Z,99596.26
2023-03-15T06:28:57.060Z,99596.67
2023-03-15T06:31:31.730Z,99592.45
2023-03-15T06:34:03.648Z,99592.36
2023-03-15T06:40:52.713Z,99595.96
2023-03-15T06:43:43.702Z,99583.20
2023-03-15T06:46:22.786Z,99580.13
2023-03-15T06:50:07.781Z,99575.34
2023-03-15T06:56:54.208Z,99582.73
2023-03-15T06:59:21.101Z,99583.83
2023-03-15T07:01:52.063Z,99588.70
2023-03-15T07:04:18.969Z,99586.65
2023-03-15T07:06:47.068Z,99583.72
2023-03-15T07:09:14.501Z,99580.62
2023-03-15T07:11:41.651Z,99586.02
2023-03-15T07:14:14.425Z,99585.51
2023-03-15T07:16:59.055Z,99580.84
2023-03-15T07:19:33.845Z,99578.77
2023-03-15T07:22:08.530Z,99579.81
2023-03-15T07:24:54.622Z,99575.13
2023-03-15T07:33:48.604Z,99576.86
2023-03-15T07:36:39.332Z,99577.90
2023-03-15T07:39:36.276Z,99574.96
2023-03-15T07:42:15.500Z,99581.05
2023-03-15T07:45:25.890Z,99585.21
2023-03-15T07:48:29.551Z,99582.61
2023-03-15T07:50:56.792Z,99579.13
2023-03-15T07:53:27.703Z,99576.52
2023-03-15T07:55:54.838Z,99572.70
2023-03-15T07:58:21.665Z,99581.21
2023-03-15T08:00:48.304Z,99575.48
2023-03-15T08:03:15.359Z,99580.52
2023-03-15T08:05:42.035Z,99580.86
2023-03-15T08:08:09.477Z,99579.46
2023-03-15T08:10:36.140Z,99574.45
2023-03-15T08:13:05.356Z,99577.39
2023-03-15T08:15:32.044Z,99575.47
2023-03-15T08:18:09.112Z,99577.55
2023-03-15T08:20:35.814Z,99588.16
2023-03-15T08:23:02.486Z,99587.48
2023-03-15T08:25:29.245Z,99587.11
2023-03-15T08:27:56.046Z,99590.41
2023-03-15T08:30:22.948Z,99591.98
2023-03-15T08:32:51.846Z,99591.79
2023-03-15T08:35:19.040Z,99586.41
2023-03-15T08:37:51.854Z,99589.36
2023-03-15T08:40:25.176Z,99588.67
2023-03-15T08:42:52.343Z,99587.64
2023-03-15T08:45:19.022Z,99585.55
2023-03-15T08:47:46.588Z,99584.49
2023-03-15T08:50:18.543Z,99585.02
2023-03-15T08:52:47.065Z,99589.87
2023-03-15T08:55:13.805Z,99594.03
2023-03-15T08:57:47.571Z,99586.56
2023-03-15T09:00:19.999Z,99588.45
2023-03-15T09:02:51.332Z,99593.49
2023-03-15T09:05:18.391Z,99595.94
2023-03-15T09:07:45.294Z,99593.33
2023-03-15T09:10:16.645Z,99592.29
2023-03-15T09:12:45.032Z,99588.11
2023-03-15T09:15:11.759Z,99589.67
2023-03-15T09:17:39.080Z,99589.66
2023-03-15T09:20:13.934Z,99585.86
2023-03-15T09:22:49.203Z,99592.13
2023-03-15T09:25:16.009Z,99586.40
2023-03-15T09:27:42.625Z,99586.75
2023-03-15T09:30:09.456Z,99582.23
2023-03-15T09:32:36.875Z,99584.32
2023-03-15T09:35:03.890Z,99588.49
2023-03-15T09:37:31.239Z,99591.27
2023-03-15T09:40:01.139Z,99588.32
2023-03-15T09:42:56.912Z,99591.63
2023-03-15T09:45:38.518Z,99591.46
2023-03-15T09:48:08.566Z,99590.40
2023-03-15T09:50:45.140Z,99589.88
2023-03-15T09:53:20.223Z,99591.45
2023-03-15T09:56:11.131Z,99590.92
2023-03-15T09:58:38.152Z,99585.54
2023-03-15T10:01:06.090Z,99588.48
2023-03-15T10:03:35.748Z,99588.64
2023-03-15T10:06:07.383Z,99580.48
2023-03-15T10:08:34.111Z,99578.56
2023-03-15T10:11:26.961Z,99577.70
2023-03-15T10:13:56.639Z,99574.39
2023-03-15T10:16:35.133Z,99566.41
2023-03-15T10:19:17.519Z,99567.10
2023-03-15T10:21:51.166Z,99559.63
2023-03-15T10:24:25.380Z,99561.89
2023-03-15T10:26:52.315Z,99557.35
2023-03-15T10:29:19.692Z,99550.58
2023-03-15T10:31:46.703Z,99548.10
2023-03-15T10:34:13.848Z,99548.93
2023-03-15T10:36:53.651Z,99539.20
2023-03-15T10:39:21.062Z,99543.17
2023-03-15T10:42:07.397Z,99538.63
2023-03-15T10:44:39.122Z,99532.87
2023-03-15T10:47:24.802Z,99535.98
2023-03-15T10:50:09.409Z,99527.96
2023-03-15T10:53:01.985Z,99524.67
2023-03-15T10:55:52.691Z,99517.18
2023-03-15T10:58:51.168Z,99514.73
2023-03-15T11:02:05.883Z,99515.27
2023-03-15T11:05:06.952Z,99516.34
2023-03-15T11:07:36.549Z,99513.89
2023-03-15T11:10:04.766Z,99514.08
2023-03-15T11:12:34.311Z,99511.65
2023-03-15T11:15:04.540Z,99509.55
2023-03-15T11:17:33.177Z,99504.16
2023-03-15T11:20:14.494Z,99501.14
2023-03-15T11:22:45.838Z,99494.30
2023-03-15T11:25:15.620Z,99491.11
2023-03-15T11:27:50.498Z,99491.59
2023-03-15T11:30:17.716Z,99488.05
2023-03-15T11:32:47.235Z,99487.66
2023-03-15T11:35:38.154Z,99478.56
2023-03-15T11:38:15.315Z,99481.33
2023-03-15T11:40:43.175Z,99480.28
2023-03-15T11:43:13.478Z,99477.18
2023-03-15T11:45:40.079Z,99480.81
2023-03-15T11:48:35.879Z,99485.33
2023-03-15T11:51:03.426Z,99480.63
2023-03-15T11:53:34.182Z,99483.77
2023-03-15T11:56:24.658Z,99486.86
2023-03-15T11:59:03.441Z,99490.16
2023-03-15T12:01:30.524Z,99492.42
2023-03-15T12:04:16.098Z,99484.73
2023-03-15T12:06:44.457Z,99483.13
2023-03-15T12:09:31.571Z,99484.65
2023-03-15T12:12:05.258Z,99482.52
2023-03-15T12:14:35.718Z,99489.14
2023-03-15T12:17:21.113Z,99489.84
2023-03-15T12:19:47.953Z,99489.66
2023-03-15T12:22:15.175Z,99489.33
2023-03-15T12:24:43.702Z,99487.75
2023-03-15T12:27:15.012Z,99496.11
2023-03-15T12:29:46.930Z,99495.11
2023-03-15T12:32:14.007Z,99487.95
2023-03-15T12:34:49.574Z,99492.61
2023-03-15T12:37:51.586Z,99493.28
2023-03-15T12:40:18.504Z,99492.11
2023-03-15T12:42:51.954Z,99495.45
2023-03-15T12:45:18.533Z,99500.02
2023-03-15T12:47:51.192Z,99497.30
2023-03-15T12:50:36.325Z,99496.60
2023-03-15T12:53:04.201Z,99495.22
2023-03-15T12:55:31.528Z,99495.21
2023-03-15T12:57:59.066Z,99490.84
2023-03-15T13:00:26.993Z,99486.65
2023-03-15T13:03:05.918Z,99484.94
2023-03-15T13:05:36.858Z,99479.89
2023-03-15T13:08:03.607Z,99478.86
